首页
METAR-TAF:

METAR-TAF

机场 :

Trent Lott International Airport

帕斯卡古拉, 密西西比州, 美国

纬度: 30-27-49N, 经度: 088-31-55W, 海拔: 5米

当前天气观测

该预报发布于14分钟前的05:53 UTC
静风
温度 21°C
湿度 88%
气压 1018 hPa
能見度: 0.8公里
天空无云

METAR: KPQL 270553Z AUTO 00000KT 1/2SM CLR 21/19 A3007 RMK AO2 SLP184 T02110194 10278 20211 403500189 58002

时间: 01:07 (06:07 UTC)


TAF: 丢失

超过4000个机场的气象观测和天气预报(METAR&TAF报告)。

可查询的气象台以黄色和红色小点在地图上表示。

将鼠标移到小点上方,可查看气象台名称。

然后点击查看天气观测和预报。

如需切换地图:点击带黑十字的绿色按钮放大地图;点击带横线的绿色按钮缩小地图;或者点击绿色箭头查看邻近地区的地图。


METAR-TAF: